Time;durP1;ratioP1;P1;durP2;ratioP2;P2;SDS_P1;SDS_P2;PMS_P1;PMS_P2;Temp;Humidity;BMP_temperature;BMP_pressure;BME280_temperature;BME280_humidity;BME280_pressure;Samples;Min_cycle;Max_cycle;Signal;HPM_P1;HPM_P2
2024/01/22 00:02:16;;;;;;;1013.35;903.35;;;6.40;99.90;;;;;;4996115;28;20057;-76
2024/01/22 00:04:41;;;;;;;944.00;852.45;;;6.40;99.90;;;;;;4983743;28;20085;-76
2024/01/22 00:07:07;;;;;;;820.35;754.28;;;6.40;99.90;;;;;;4984631;28;20247;-76
2024/01/22 00:09:33;;;;;;;869.45;795.53;;;6.40;99.90;;;;;;5001707;28;20038;-76
2024/01/22 00:11:58;;;;;;;888.85;805.08;;;6.40;99.90;;;;;;4989392;28;20562;-76
2024/01/22 00:14:24;;;;;;;979.40;873.30;;;6.40;99.90;;;;;;4981844;28;20049;-76
2024/01/22 00:16:50;;;;;;;874.83;793.38;;;6.40;99.90;;;;;;5012072;28;20447;-76
2024/01/22 00:19:16;;;;;;;754.17;696.47;;;6.50;99.90;;;;;;4984699;28;20077;-76
2024/01/22 00:21:43;;;;;;;821.65;753.25;;;6.50;99.90;;;;;;4983752;28;20054;-76
2024/01/22 00:24:09;;;;;;;900.67;817.47;;;6.50;99.90;;;;;;4984352;28;20088;-76
2024/01/22 00:26:35;;;;;;;782.47;721.25;;;6.50;99.90;;;;;;5000169;28;20117;-76
2024/01/22 00:29:01;;;;;;;892.28;808.10;;;6.60;99.90;;;;;;4986753;28;20145;-76
2024/01/22 00:31:27;;;;;;;807.47;737.35;;;6.50;99.90;;;;;;4983221;28;20066;-76
2024/01/22 00:33:53;;;;;;;897.05;815.42;;;6.60;99.90;;;;;;4983881;28;20046;-76
2024/01/22 00:36:19;;;;;;;902.40;819.47;;;6.60;99.90;;;;;;4996820;28;20110;-76
2024/01/22 00:38:45;;;;;;;891.78;808.53;;;6.60;99.90;;;;;;4988892;28;20062;-76
2024/01/22 00:41:11;;;;;;;994.72;888.97;;;6.70;99.90;;;;;;5022265;28;20082;-76
2024/01/22 00:43:37;;;;;;;896.55;813.60;;;6.70;99.90;;;;;;5003125;28;20081;-76
2024/01/22 00:46:03;;;;;;;769.30;708.40;;;6.80;99.90;;;;;;5002536;28;20088;-76
2024/01/22 00:48:29;;;;;;;881.03;803.53;;;6.80;99.90;;;;;;5001509;28;20450;-76
2024/01/22 00:50:55;;;;;;;780.42;720.28;;;6.80;99.90;;;;;;5025811;28;20137;-76
2024/01/22 00:53:20;;;;;;;816.10;749.92;;;6.80;99.90;;;;;;4982363;28;20061;-76
2024/01/22 00:55:46;;;;;;;905.95;822.88;;;6.80;99.90;;;;;;4983316;28;20058;-76
2024/01/22 00:58:12;;;;;;;885.25;802.45;;;6.90;99.90;;;;;;4982549;28;20049;-75
2024/01/22 01:00:37;;;;;;;799.17;737.67;;;6.90;99.90;;;;;;4995807;28;20621;-76
2024/01/22 01:03:03;;;;;;;985.42;882.35;;;6.90;99.90;;;;;;4985051;28;20043;-76
2024/01/22 01:05:29;;;;;;;948.03;860.38;;;6.90;99.90;;;;;;4983599;28;20042;-76
2024/01/22 01:07:55;;;;;;;963.00;867.22;;;6.90;99.90;;;;;;4984933;28;20046;-76
2024/01/22 01:10:20;;;;;;;872.67;797.47;;;6.90;99.90;;;;;;4993547;28;20482;-76
2024/01/22 01:12:46;;;;;;;875.00;797.20;;;6.90;99.90;;;;;;5032419;28;20138;-76
2024/01/22 01:15:12;;;;;;;918.78;834.75;;;6.90;99.90;;;;;;4982050;28;20046;-76
2024/01/22 01:17:38;;;;;;;819.42;753.40;;;6.90;99.90;;;;;;5033670;28;20049;-76
2024/01/22 01:20:05;;;;;;;812.40;746.80;;;7.00;99.90;;;;;;5006913;28;20049;-76
2024/01/22 01:22:32;;;;;;;898.00;814.78;;;7.00;99.90;;;;;;5037260;28;20054;-76
2024/01/22 01:24:57;;;;;;;793.00;729.17;;;7.00;99.90;;;;;;5005134;28;20054;-76
2024/01/22 01:27:23;;;;;;;737.83;682.17;;;7.00;99.90;;;;;;5004421;28;20086;-75
2024/01/22 01:29:49;;;;;;;726.45;672.55;;;7.00;99.90;;;;;;5004468;28;20054;-76
2024/01/22 01:32:15;;;;;;;795.00;729.33;;;7.10;99.90;;;;;;5003785;28;20057;-75
2024/01/22 01:34:42;;;;;;;953.63;855.20;;;7.10;99.90;;;;;;5005485;28;20117;-76
2024/01/22 01:37:07;;;;;;;846.58;768.78;;;7.10;99.90;;;;;;5004242;28;20509;-76
2024/01/22 01:39:33;;;;;;;753.15;692.85;;;7.10;99.90;;;;;;4993757;28;20078;-76
2024/01/22 01:41:59;;;;;;;810.58;746.28;;;7.20;99.90;;;;;;4992313;28;20105;-76
2024/01/22 01:44:41;;;;;;;830.20;758.78;;;7.20;99.90;;;;;;4993816;28;20050;-76
2024/01/22 01:47:07;;;;;;;768.33;709.83;;;7.30;99.90;;;;;;4975478;28;20069;-76
2024/01/22 01:49:33;;;;;;;787.05;725.83;;;7.30;99.90;;;;;;4985567;28;20478;-75
2024/01/22 01:52:00;;;;;;;886.60;801.53;;;7.40;99.90;;;;;;4987267;28;20054;-76
2024/01/22 01:54:28;;;;;;;837.22;768.95;;;7.40;99.90;;;;;;4984303;28;20054;-76
2024/01/22 01:56:54;;;;;;;862.35;784.10;;;7.50;99.90;;;;;;4986019;28;20057;-76
2024/01/22 01:59:20;;;;;;;929.17;836.63;;;7.60;99.90;;;;;;4992506;28;20505;-76
2024/01/22 02:01:46;;;;;;;801.33;737.35;;;7.60;99.90;;;;;;4994038;28;20107;-76
2024/01/22 02:04:11;;;;;;;850.35;776.78;;;7.70;99.90;;;;;;4996393;28;20053;-76
2024/01/22 02:06:37;;;;;;;996.95;888.92;;;7.70;99.90;;;;;;4994500;28;20160;-76
2024/01/22 02:09:03;;;;;;;887.53;806.67;;;7.80;99.90;;;;;;5003243;28;20124;-76
2024/01/22 02:11:29;;;;;;;801.50;737.25;;;7.90;99.90;;;;;;4991312;28;20054;-75
2024/01/22 02:13:54;;;;;;;895.25;813.65;;;7.90;99.90;;;;;;4985285;28;20501;-76
2024/01/22 02:16:21;;;;;;;791.38;729.28;;;7.90;99.90;;;;;;4983584;28;20061;-76
2024/01/22 02:18:47;;;;;;;806.72;740.50;;;7.80;99.90;;;;;;4969314;28;20077;-76
2024/01/22 02:21:14;;;;;;;790.85;729.08;;;7.80;99.90;;;;;;4985757;28;20826;-75
2024/01/22 02:23:40;;;;;;;880.72;801.38;;;7.90;99.90;;;;;;4992641;28;20049;-75
2024/01/22 02:26:06;;;;;;;857.00;780.15;;;7.80;99.90;;;;;;4997084;28;20058;-75
2024/01/22 02:28:32;;;;;;;937.67;844.92;;;7.80;99.90;;;;;;4985257;28;20046;-75
2024/01/22 02:30:59;;;;;;;914.15;824.38;;;7.90;99.90;;;;;;5006727;28;20117;-76
2024/01/22 02:33:25;;;;;;;841.40;770.50;;;7.90;99.90;;;;;;5001923;28;20054;-76
2024/01/22 02:35:51;;;;;;;1078.50;913.47;;;7.90;99.90;;;;;;4995370;28;20057;-75
2024/01/22 02:38:16;;;;;;;875.70;799.78;;;7.90;99.90;;;;;;4984132;28;20050;-75
2024/01/22 02:40:43;;;;;;;986.35;868.10;;;8.00;99.90;;;;;;4987160;28;20077;-75
2024/01/22 02:43:09;;;;;;;951.42;856.63;;;8.00;99.90;;;;;;4984895;28;20056;-76
2024/01/22 02:45:35;;;;;;;885.08;807.25;;;8.10;99.90;;;;;;4968874;28;20137;-75
2024/01/22 02:48:01;;;;;;;898.65;813.33;;;8.10;99.90;;;;;;4985665;28;20042;-76
2024/01/22 02:50:26;;;;;;;865.78;786.17;;;8.20;99.90;;;;;;4985211;28;20064;-75
2024/01/22 02:52:52;;;;;;;869.10;789.42;;;8.20;99.90;;;;;;5018330;28;20460;-76
2024/01/22 02:55:18;;;;;;;853.53;778.33;;;8.60;99.90;;;;;;5000085;28;20042;-76
2024/01/22 02:57:43;;;;;;;890.10;801.88;;;8.20;99.90;;;;;;5002035;28;20518;-75
2024/01/22 03:00:09;;;;;;;906.35;819.38;;;8.30;99.90;;;;;;4986073;28;20051;-76
2024/01/22 03:02:35;;;;;;;866.75;791.00;;;8.30;99.90;;;;;;4984816;28;20490;-76
2024/01/22 03:05:01;;;;;;;914.53;825.72;;;8.30;99.90;;;;;;5017142;28;20050;-76
2024/01/22 03:07:26;;;;;;;915.15;829.22;;;8.30;99.90;;;;;;4984912;28;20054;-76
2024/01/22 03:09:52;;;;;;;956.13;860.17;;;8.30;99.90;;;;;;4985417;28;20058;-75
2024/01/22 03:12:18;;;;;;;786.42;723.67;;;8.30;99.90;;;;;;4983948;28;20088;-75
2024/01/22 03:14:43;;;;;;;989.05;886.70;;;8.30;99.90;;;;;;4980696;28;20084;-76
2024/01/22 03:17:09;;;;;;;945.20;854.42;;;8.30;99.90;;;;;;4980085;28;20050;-76
2024/01/22 03:19:36;;;;;;;975.80;870.42;;;8.30;99.90;;;;;;4984363;28;20129;-76
2024/01/22 03:22:02;;;;;;;880.35;799.05;;;8.30;99.90;;;;;;4997644;28;20062;-76
2024/01/22 03:24:28;;;;;;;833.42;766.25;;;8.30;99.90;;;;;;5003478;28;20042;-75
2024/01/22 03:26:54;;;;;;;913.10;823.58;;;8.30;99.90;;;;;;5002956;28;20444;-75
2024/01/22 03:29:19;;;;;;;894.38;812.22;;;8.30;99.90;;;;;;5005025;28;20140;-76
2024/01/22 03:31:45;;;;;;;991.35;885.42;;;8.30;99.90;;;;;;5003570;28;20564;-76
2024/01/22 03:34:11;;;;;;;845.55;777.03;;;8.30;99.90;;;;;;4983748;28;20092;-76
2024/01/22 03:36:37;;;;;;;866.33;795.90;;;8.30;99.90;;;;;;4983932;28;20054;-76
2024/01/22 03:39:03;;;;;;;899.40;819.30;;;8.30;99.90;;;;;;4996496;28;20046;-76
2024/01/22 03:41:29;;;;;;;896.17;814.78;;;8.30;99.90;;;;;;5002790;28;20077;-76
2024/01/22 03:43:55;;;;;;;1162.18;953.22;;;8.30;99.90;;;;;;4990221;28;20096;-76
2024/01/22 03:46:20;;;;;;;1012.15;904.50;;;8.30;99.90;;;;;;5002394;28;20125;-76
2024/01/22 03:48:46;;;;;;;1172.03;968.88;;;8.30;99.90;;;;;;4998526;28;20081;-76
2024/01/22 03:51:12;;;;;;;1080.22;913.03;;;8.30;99.90;;;;;;4983548;28;20409;-76
2024/01/22 03:53:38;;;;;;;829.83;763.95;;;8.30;99.90;;;;;;5001124;28;20057;-75
2024/01/22 03:56:05;;;;;;;865.10;791.33;;;8.30;99.90;;;;;;5005239;28;20107;-76
2024/01/22 03:58:32;;;;;;;895.25;819.33;;;8.30;99.90;;;;;;4996545;28;20042;-75
2024/01/22 04:00:58;;;;;;;908.58;829.65;;;8.40;99.90;;;;;;4987525;28;20045;-75
2024/01/22 04:03:24;;;;;;;865.92;793.78;;;8.30;99.90;;;;;;5003788;28;20456;-76
2024/01/22 04:05:50;;;;;;;877.92;807.50;;;8.30;99.90;;;;;;5003918;28;20038;-75
2024/01/22 04:08:15;;;;;;;958.80;868.17;;;8.30;99.90;;;;;;4994343;28;20049;-75
2024/01/22 04:10:42;;;;;;;938.30;844.05;;;8.30;99.90;;;;;;4998722;28;20561;-75
2024/01/22 04:13:08;;;;;;;969.00;875.28;;;8.40;99.90;;;;;;5003265;28;20097;-75
2024/01/22 04:15:34;;;;;;;983.03;888.50;;;8.40;99.90;;;;;;4994916;28;20088;-76
2024/01/22 04:18:00;;;;;;;870.80;798.80;;;8.50;99.90;;;;;;5005418;28;20081;-75
2024/01/22 04:20:26;;;;;;;889.58;811.10;;;8.50;99.90;;;;;;5003298;28;20353;-75
2024/01/22 04:22:52;;;;;;;979.67;885.33;;;8.50;99.90;;;;;;4986963;28;20569;-75
2024/01/22 04:25:18;;;;;;;984.13;886.95;;;8.50;99.90;;;;;;5003079;28;20333;-75
2024/01/22 04:27:43;;;;;;;1006.78;904.65;;;8.40;99.90;;;;;;5001567;28;20118;-76
2024/01/22 04:30:10;;;;;;;1002.20;903.10;;;8.40;99.90;;;;;;5003027;28;20046;-76
2024/01/22 04:32:35;;;;;;;916.63;835.72;;;8.50;99.90;;;;;;5002632;28;20261;-76
2024/01/22 04:35:02;;;;;;;1041.30;933.38;;;8.50;99.90;;;;;;4989012;28;20570;-76
2024/01/22 04:37:28;;;;;;;938.88;852.40;;;8.60;99.90;;;;;;4984709;28;20557;-76
2024/01/22 04:39:55;;;;;;;935.22;848.95;;;8.60;99.90;;;;;;4984238;28;20055;-76
2024/01/22 04:42:21;;;;;;;879.38;805.65;;;8.70;99.90;;;;;;4982881;28;20106;-76
2024/01/22 04:44:47;;;;;;;888.55;811.05;;;8.60;99.90;;;;;;4983499;28;20050;-76
2024/01/22 04:47:12;;;;;;;867.53;796.17;;;8.70;99.90;;;;;;4986601;28;20051;-76
2024/01/22 04:49:38;;;;;;;946.42;860.60;;;8.70;99.90;;;;;;4988730;28;20081;-76
2024/01/22 04:52:04;;;;;;;917.85;837.30;;;8.70;99.90;;;;;;5000104;28;20064;-76
2024/01/22 04:54:30;;;;;;;850.53;781.97;;;8.80;99.90;;;;;;4985552;28;20062;-75
2024/01/22 04:56:55;;;;;;;965.40;869.30;;;8.80;99.90;;;;;;4988946;28;20042;-75
2024/01/22 04:59:21;;;;;;;1322.28;984.60;;;8.80;99.90;;;;;;4998888;28;20136;-76
2024/01/22 05:01:47;;;;;;;885.47;810.95;;;8.80;99.90;;;;;;5005290;28;20373;-76
2024/01/22 05:04:12;;;;;;;854.42;787.22;;;8.90;99.90;;;;;;5004573;28;20148;-75
2024/01/22 05:06:38;;;;;;;898.78;816.97;;;8.90;99.90;;;;;;5005669;28;20129;-75
2024/01/22 05:09:04;;;;;;;976.85;880.75;;;8.90;99.90;;;;;;5037812;28;20498;-76
2024/01/22 05:11:31;;;;;;;973.28;868.88;;;9.00;99.90;;;;;;5004243;28;20114;-76
2024/01/22 05:13:57;;;;;;;992.92;896.33;;;9.00;99.90;;;;;;4980301;28;20485;-76
2024/01/22 05:16:23;;;;;;;1030.30;913.42;;;9.10;99.90;;;;;;4997040;28;20075;-75
2024/01/22 05:18:50;;;;;;;894.65;816.75;;;9.20;99.90;;;;;;5004964;28;20050;-75
2024/01/22 05:21:16;;;;;;;910.15;830.90;;;9.20;99.90;;;;;;4980225;28;20062;-75
2024/01/22 05:23:42;;;;;;;970.28;878.42;;;9.10;99.90;;;;;;4992577;28;20057;-75
2024/01/22 05:26:08;;;;;;;977.75;879.22;;;9.20;99.90;;;;;;4995484;28;20039;-75
2024/01/22 05:28:34;;;;;;;909.55;832.83;;;9.20;99.90;;;;;;4997712;28;20083;-75
2024/01/22 05:31:01;;;;;;;843.08;776.78;;;9.30;99.90;;;;;;4998954;28;20674;-75
2024/01/22 05:33:27;;;;;;;899.83;825.35;;;9.30;99.90;;;;;;5031633;28;20132;-75
2024/01/22 05:35:53;;;;;;;949.17;862.88;;;9.30;99.90;;;;;;5005289;28;20046;-75
2024/01/22 05:38:19;;;;;;;948.97;858.80;;;9.40;99.90;;;;;;4995714;28;20057;-75
2024/01/22 05:40:45;;;;;;;1008.60;901.67;;;9.40;99.90;;;;;;4997465;28;20474;-75
2024/01/22 05:43:11;;;;;;;904.53;826.55;;;9.50;99.90;;;;;;4996085;28;20477;-75
2024/01/22 05:45:37;;;;;;;1162.15;985.92;;;9.50;99.90;;;;;;4990516;28;20057;-75
2024/01/22 05:48:03;;;;;;;931.00;849.92;;;9.60;99.90;;;;;;4976190;28;20047;-76
2024/01/22 05:50:29;;;;;;;869.33;798.65;;;9.70;99.90;;;;;;4971357;28;20108;-76
2024/01/22 05:52:55;;;;;;;901.25;823.10;;;9.70;99.90;;;;;;4979506;28;20050;-76
2024/01/22 05:55:21;;;;;;;817.88;754.25;;;9.70;99.90;;;;;;4988182;28;20434;-75
2024/01/22 05:57:47;;;;;;;916.00;835.47;;;9.60;99.90;;;;;;4988077;28;20495;-76
2024/01/22 06:00:13;;;;;;;914.97;829.55;;;9.70;99.90;;;;;;4994518;28;20112;-75
2024/01/22 06:02:40;;;;;;;851.95;784.60;;;9.80;99.90;;;;;;4974462;28;20455;-75
2024/01/22 06:05:06;;;;;;;877.70;804.47;;;9.80;99.90;;;;;;4999343;28;20054;-75
2024/01/22 06:07:32;;;;;;;823.70;758.55;;;9.80;99.90;;;;;;4984615;28;20091;-75
2024/01/22 06:09:58;;;;;;;907.13;826.85;;;9.80;99.90;;;;;;4996180;28;20049;-75
2024/01/22 06:12:25;;;;;;;821.80;756.90;;;9.80;99.90;;;;;;5005906;28;20049;-74
2024/01/22 06:14:51;;;;;;;842.83;773.75;;;9.90;99.90;;;;;;4994271;28;20133;-75
2024/01/22 06:17:17;;;;;;;886.58;812.25;;;9.80;99.90;;;;;;4986523;28;20042;-75
2024/01/22 06:19:43;;;;;;;838.40;772.10;;;9.90;99.90;;;;;;5006308;28;20109;-75
2024/01/22 06:22:10;;;;;;;853.92;782.92;;;9.80;99.90;;;;;;4990618;28;20040;-75
2024/01/22 06:24:38;;;;;;;842.53;770.30;;;9.90;99.90;;;;;;5003826;28;20053;-75
2024/01/22 06:27:04;;;;;;;844.35;770.22;;;9.90;99.90;;;;;;4985428;28;20553;-75
2024/01/22 06:29:29;;;;;;;918.08;837.47;;;10.00;99.90;;;;;;4996709;28;20054;-74
2024/01/22 06:31:55;;;;;;;851.78;780.63;;;10.00;99.90;;;;;;5004208;28;20038;-75
2024/01/22 06:34:21;;;;;;;851.35;782.22;;;10.00;99.90;;;;;;5003129;28;20134;-75
2024/01/22 06:36:46;;;;;;;877.15;801.72;;;10.10;99.90;;;;;;5005522;28;20046;-75
2024/01/22 06:39:12;;;;;;;873.65;799.30;;;10.20;99.90;;;;;;5002524;28;20057;-75
2024/01/22 06:41:38;;;;;;;1012.67;903.65;;;10.10;99.90;;;;;;4984593;28;20046;-75
2024/01/22 06:44:05;;;;;;;898.75;821.85;;;10.20;99.90;;;;;;4985004;28;20057;-75
2024/01/22 06:46:31;;;;;;;794.00;731.15;;;10.10;99.90;;;;;;5002017;28;20768;-75
2024/01/22 06:48:56;;;;;;;871.40;792.80;;;10.20;99.90;;;;;;4992697;28;20038;-75
2024/01/22 06:51:23;;;;;;;763.92;705.03;;;10.10;99.90;;;;;;5003907;28;20046;-75
2024/01/22 06:53:50;;;;;;;775.00;712.88;;;10.10;99.90;;;;;;5004083;28;20046;-75
2024/01/22 06:56:15;;;;;;;979.58;873.40;;;10.20;99.90;;;;;;5004786;28;20053;-75
2024/01/22 06:58:41;;;;;;;830.97;764.63;;;10.10;99.90;;;;;;4995490;28;20050;-75
2024/01/22 07:01:07;;;;;;;967.80;879.38;;;10.10;99.90;;;;;;4987808;28;20050;-75
2024/01/22 07:03:33;;;;;;;824.15;758.70;;;10.10;99.90;;;;;;5003182;28;20054;-75
2024/01/22 07:05:58;;;;;;;864.30;790.15;;;10.10;99.90;;;;;;5004901;28;20627;-75
2024/01/22 07:08:24;;;;;;;796.05;734.15;;;10.20;99.90;;;;;;5003732;28;20122;-75
2024/01/22 07:10:50;;;;;;;799.00;736.20;;;10.10;99.90;;;;;;5005253;28;20053;-76
2024/01/22 07:13:16;;;;;;;963.95;866.60;;;10.10;99.90;;;;;;4986201;28;20414;-75
2024/01/22 07:15:41;;;;;;;990.13;887.85;;;10.10;99.90;;;;;;4973036;28;20038;-75
2024/01/22 07:18:08;;;;;;;1188.65;999.90;;;10.10;99.90;;;;;;4984233;28;20053;-76
2024/01/22 07:20:33;;;;;;;847.33;779.38;;;10.10;99.90;;;;;;4985359;28;20490;-76
2024/01/22 07:22:59;;;;;;;874.33;803.03;;;10.10;99.90;;;;;;4991717;28;20045;-75
2024/01/22 07:25:25;;;;;;;1288.70;996.50;;;10.10;99.90;;;;;;4992222;28;20137;-76
2024/01/22 07:27:51;;;;;;;865.60;790.83;;;10.00;99.90;;;;;;5017968;28;20579;-75
2024/01/22 07:30:17;;;;;;;867.13;795.05;;;10.10;99.90;;;;;;4986002;28;20405;-76
2024/01/22 07:32:44;;;;;;;943.08;855.05;;;10.20;99.90;;;;;;4983847;28;20099;-76
2024/01/22 07:35:11;;;;;;;865.42;794.15;;;10.20;99.90;;;;;;4984336;28;20042;-75
2024/01/22 07:37:41;;;;;;;834.80;763.10;;;10.20;99.90;;;;;;4981863;28;20058;-76
2024/01/22 07:40:09;;;;;;;815.85;747.35;;;10.20;99.90;;;;;;4977484;28;20054;-75
2024/01/22 07:42:35;;;;;;;832.60;764.47;;;10.10;99.90;;;;;;5018501;28;20034;-75
2024/01/22 07:45:01;;;;;;;844.08;775.42;;;10.20;99.90;;;;;;4974341;28;20129;-76
2024/01/22 07:47:27;;;;;;;924.20;835.75;;;10.20;99.90;;;;;;5016540;28;20098;-76
2024/01/22 07:49:54;;;;;;;865.72;791.90;;;10.20;99.90;;;;;;4982280;28;20046;-76
2024/01/22 07:52:21;;;;;;;838.05;768.08;;;10.20;99.90;;;;;;4991744;28;20030;-76
2024/01/22 07:54:47;;;;;;;875.05;801.90;;;10.20;99.90;;;;;;4955662;28;20082;-76
2024/01/22 07:57:13;;;;;;;845.00;773.20;;;10.20;99.90;;;;;;4965336;28;20043;-76
2024/01/22 07:59:38;;;;;;;837.05;768.88;;;10.20;99.90;;;;;;4983586;28;20042;-75
2024/01/22 08:02:05;;;;;;;797.90;733.10;;;10.10;99.90;;;;;;5036383;28;20060;-75
2024/01/22 08:04:31;;;;;;;1010.25;902.65;;;10.10;99.90;;;;;;5001918;28;20386;-75
2024/01/22 08:07:00;;;;;;;844.05;773.47;;;10.00;99.90;;;;;;5001429;28;20064;-75
2024/01/22 08:09:26;;;;;;;794.03;730.95;;;10.10;99.90;;;;;;5000270;28;20046;-75
2024/01/22 08:11:52;;;;;;;855.20;783.60;;;9.90;99.90;;;;;;5002878;28;20053;-75
2024/01/22 08:14:17;;;;;;;828.20;761.10;;;9.80;99.90;;;;;;5001480;28;20058;-75
2024/01/22 08:16:45;;;;;;;930.45;847.90;;;9.70;99.90;;;;;;5012418;28;20046;-75
2024/01/22 08:19:11;;;;;;;834.83;767.75;;;9.70;99.90;;;;;;5001874;28;20050;-75
2024/01/22 08:21:37;;;;;;;875.47;800.50;;;9.50;99.90;;;;;;5037090;28;20497;-75
2024/01/22 08:24:03;;;;;;;918.20;833.35;;;9.50;99.90;;;;;;5003663;28;20064;-75
2024/01/22 08:26:29;;;;;;;846.03;777.45;;;9.50;99.90;;;;;;5004873;28;20081;-75
2024/01/22 08:28:55;;;;;;;862.22;792.45;;;9.40;99.90;;;;;;4992400;28;20181;-75
2024/01/22 08:31:21;;;;;;;825.00;758.40;;;9.40;99.90;;;;;;4980850;28;20475;-75
2024/01/22 08:33:49;;;;;;;917.85;837.00;;;9.30;99.90;;;;;;4979999;28;20050;-75
2024/01/22 08:36:15;;;;;;;890.92;813.22;;;9.30;99.90;;;;;;4972171;28;20124;-75
2024/01/22 08:38:41;;;;;;;878.10;803.92;;;9.30;99.90;;;;;;4984838;28;20405;-75
2024/01/22 08:41:08;;;;;;;914.17;834.65;;;9.30;99.90;;;;;;4994712;28;20042;-75
2024/01/22 08:43:34;;;;;;;1037.30;929.92;;;9.30;99.90;;;;;;4992951;28;20264;-76
2024/01/22 08:46:01;;;;;;;831.38;764.03;;;9.30;99.90;;;;;;4983817;28;20092;-75
2024/01/22 08:48:26;;;;;;;929.38;841.70;;;9.30;99.90;;;;;;4970834;28;20046;-76
2024/01/22 08:50:52;;;;;;;812.10;746.90;;;9.20;99.90;;;;;;4974889;28;20035;-76
2024/01/22 08:53:18;;;;;;;921.72;840.03;;;9.20;99.90;;;;;;5025650;28;20048;-75
2024/01/22 08:55:44;;;;;;;841.20;772.45;;;9.20;99.90;;;;;;4984481;28;20060;-76
2024/01/22 08:58:10;;;;;;;871.58;800.33;;;9.10;99.90;;;;;;4974683;28;20038;-76
2024/01/22 09:00:36;;;;;;;784.17;721.65;;;9.10;99.90;;;;;;4983738;28;20435;-76
2024/01/22 09:03:02;;;;;;;861.25;787.85;;;9.10;99.90;;;;;;4991138;28;20475;-76
2024/01/22 09:05:28;;;;;;;782.60;721.05;;;9.10;99.90;;;;;;4983486;28;20483;-76
2024/01/22 09:07:54;;;;;;;944.38;853.10;;;9.00;99.90;;;;;;4989742;28;20073;-76
2024/01/22 09:10:21;;;;;;;817.10;750.50;;;9.10;99.90;;;;;;4982319;28;20131;-76
2024/01/22 09:12:48;;;;;;;824.20;754.40;;;9.10;99.90;;;;;;4974501;28;20486;-76
2024/01/22 09:15:17;;;;;;;875.08;799.20;;;9.10;99.90;;;;;;4993276;28;20126;-76
2024/01/22 09:17:44;;;;;;;857.95;785.85;;;9.20;99.90;;;;;;5004306;28;20131;-76
2024/01/22 09:20:10;;;;;;;899.85;820.22;;;9.20;99.90;;;;;;5005254;28;20046;-76
2024/01/22 09:22:37;;;;;;;789.22;724.75;;;9.20;99.90;;;;;;5003975;28;20041;-76
2024/01/22 09:25:04;;;;;;;896.00;815.97;;;9.20;99.90;;;;;;4990682;28;20548;-76
2024/01/22 09:27:30;;;;;;;960.55;864.97;;;9.10;99.90;;;;;;4997087;28;20062;-76
2024/01/22 09:29:56;;;;;;;821.20;753.63;;;9.30;99.90;;;;;;4993709;28;20054;-76
2024/01/22 09:32:21;;;;;;;885.08;807.65;;;9.20;99.90;;;;;;4996249;28;20064;-76
2024/01/22 09:34:47;;;;;;;882.67;804.45;;;9.20;99.90;;;;;;4994909;28;20043;-76
2024/01/22 09:37:13;;;;;;;897.47;818.75;;;9.20;99.90;;;;;;5029643;28;20486;-76
2024/01/22 09:39:39;;;;;;;1031.22;922.35;;;9.30;99.90;;;;;;4994180;28;20057;-76
2024/01/22 09:42:05;;;;;;;902.22;817.65;;;9.40;99.90;;;;;;4997701;28;20052;-76
2024/01/22 09:44:32;;;;;;;870.47;797.65;;;9.40;99.90;;;;;;5002599;28;20045;-76
2024/01/22 09:46:59;;;;;;;982.05;886.38;;;9.50;99.90;;;;;;5004870;28;20041;-76
2024/01/22 09:49:25;;;;;;;891.10;813.65;;;9.50;99.90;;;;;;5006762;28;20613;-76
2024/01/22 09:51:51;;;;;;;907.40;826.13;;;9.50;99.90;;;;;;5004141;28;20045;-76
2024/01/22 09:54:19;;;;;;;857.13;782.90;;;9.50;99.90;;;;;;5004733;28;20111;-76
2024/01/22 09:56:52;;;;;;;814.83;748.45;;;9.50;99.90;;;;;;5004165;28;20121;-76
2024/01/22 09:59:22;;;;;;;858.80;782.72;;;9.50;99.90;;;;;;4991239;28;20511;-76
2024/01/22 10:01:49;;;;;;;801.45;733.70;;;9.50;99.90;;;;;;5004574;28;20125;-76
2024/01/22 10:04:16;;;;;;;781.00;718.83;;;9.50;99.90;;;;;;5004719;28;20064;-77
2024/01/22 10:06:43;;;;;;;790.40;726.90;;;9.50;99.90;;;;;;5003607;28;20654;-76
2024/01/22 10:09:10;;;;;;;846.28;774.28;;;9.50;99.90;;;;;;5005863;28;20366;-76
2024/01/22 10:11:36;;;;;;;734.60;677.40;;;9.50;99.90;;;;;;5005432;28;20081;-76
2024/01/22 10:14:02;;;;;;;895.53;812.17;;;9.60;99.90;;;;;;4978091;28;20138;-76
2024/01/22 10:16:28;;;;;;;741.58;682.45;;;9.60;99.90;;;;;;4986107;28;20057;-76
2024/01/22 10:19:04;;;;;;;808.78;741.88;;;9.50;99.90;;;;;;4985904;28;20065;-76
2024/01/22 10:21:30;;;;;;;819.65;748.28;;;9.50;99.90;;;;;;4985400;28;20066;-76
2024/01/22 10:23:57;;;;;;;873.35;791.10;;;9.50;99.90;;;;;;4986411;28;20074;-76
2024/01/22 10:26:23;;;;;;;823.15;755.03;;;9.60;99.90;;;;;;4985230;28;20107;-76
2024/01/22 10:28:49;;;;;;;826.10;756.83;;;9.50;99.90;;;;;;4987114;28;20113;-77
2024/01/22 10:31:14;;;;;;;747.70;688.40;;;9.60;99.90;;;;;;4987140;28;20150;-77
2024/01/22 10:33:40;;;;;;;787.53;724.20;;;9.60;99.90;;;;;;4986993;28;20157;-78
2024/01/22 10:36:17;;;;;;;863.47;788.25;;;9.60;99.90;;;;;;4988589;28;20460;-77
2024/01/22 10:38:44;;;;;;;774.53;712.40;;;9.60;99.90;;;;;;4986781;28;20462;-77
2024/01/22 10:41:17;;;;;;;696.83;643.15;;;9.60;99.90;;;;;;4986013;28;20136;-77
2024/01/22 10:43:43;;;;;;;656.90;605.55;;;9.60;99.90;;;;;;4987774;28;20050;-77
2024/01/22 10:46:11;;;;;;;656.63;605.63;;;9.60;99.90;;;;;;4996252;28;20117;-77
2024/01/22 10:48:37;;;;;;;651.72;599.75;;;9.60;99.90;;;;;;4999983;28;20089;-77
2024/01/22 10:51:04;;;;;;;700.83;645.33;;;9.60;99.90;;;;;;5005852;28;20026;-77
2024/01/22 10:53:31;;;;;;;672.67;618.97;;;9.60;99.90;;;;;;5003323;28;20045;-77
2024/01/22 10:56:01;;;;;;;650.28;601.03;;;9.60;99.90;;;;;;5003703;28;20053;-77
2024/01/22 10:58:30;;;;;;;668.67;615.55;;;9.60;99.90;;;;;;4997750;28;20050;-76
2024/01/22 11:01:00;;;;;;;668.95;617.25;;;9.60;99.90;;;;;;4984941;28;20121;-77
2024/01/22 11:03:28;;;;;;;514.15;475.83;;;9.70;99.90;;;;;;4990538;28;20053;-76
2024/01/22 11:05:59;;;;;;;567.40;525.42;;;9.60;99.90;;;;;;5005280;28;20042;-76
2024/01/22 11:08:28;;;;;;;599.65;554.45;;;9.60;99.90;;;;;;5001445;28;20085;-78
2024/01/22 11:10:55;;;;;;;702.88;648.42;;;9.70;99.90;;;;;;5005039;28;20085;-77
2024/01/22 11:13:21;;;;;;;663.65;611.33;;;9.70;99.90;;;;;;4985413;28;20042;-76
2024/01/22 11:15:47;;;;;;;668.03;616.13;;;9.80;99.90;;;;;;4984237;28;20057;-76
2024/01/22 11:18:13;;;;;;;715.03;657.45;;;9.90;99.90;;;;;;5017122;28;20050;-77
2024/01/22 11:20:39;;;;;;;793.25;725.20;;;9.90;99.90;;;;;;4984526;28;20490;-77
2024/01/22 11:23:15;;;;;;;868.17;789.42;;;10.00;99.90;;;;;;4996548;28;20088;-77
2024/01/22 11:25:40;;;;;;;729.28;672.30;;;10.10;99.90;;;;;;5004213;28;20049;-76
2024/01/22 11:28:09;;;;;;;888.00;802.70;;;10.10;99.90;;;;;;4997653;28;20045;-77
2024/01/22 11:30:39;;;;;;;725.72;669.22;;;10.00;99.90;;;;;;4983485;28;20090;-76
2024/01/22 11:33:25;;;;;;;742.00;682.63;;;10.00;99.90;;;;;;4984456;28;20460;-76
2024/01/22 11:35:51;;;;;;;514.47;476.92;;;10.00;99.90;;;;;;5000876;28;20046;-76
2024/01/22 11:38:42;;;;;;;581.35;536.88;;;10.00;99.90;;;;;;4983564;28;20129;-76
2024/01/22 11:41:08;;;;;;;593.42;547.38;;;10.00;99.90;;;;;;4985893;28;20050;-76
2024/01/22 11:43:34;;;;;;;524.58;485.58;;;9.90;99.90;;;;;;4984703;28;20038;-76
2024/01/22 11:46:15;;;;;;;552.13;510.83;;;9.90;99.90;;;;;;4984664;28;20710;-76
2024/01/22 11:48:40;;;;;;;498.75;463.25;;;9.90;99.90;;;;;;4986338;28;20047;-76
2024/01/22 11:51:07;;;;;;;575.58;532.33;;;9.90;99.90;;;;;;4985476;28;20037;-76
2024/01/22 11:53:50;;;;;;;532.03;492.27;;;9.90;99.90;;;;;;4983890;28;20129;-76
2024/01/22 11:56:16;;;;;;;542.60;502.17;;;9.90;99.90;;;;;;4984650;28;20046;-76
2024/01/22 11:58:42;;;;;;;546.15;505.25;;;9.90;99.90;;;;;;4982885;28;20054;-76
2024/01/22 12:01:09;;;;;;;435.80;405.45;;;9.90;99.90;;;;;;4983592;28;20483;-76
2024/01/22 12:03:37;;;;;;;493.40;457.98;;;9.90;99.90;;;;;;4984066;28;20090;-76
2024/01/22 12:06:04;;;;;;;628.47;580.35;;;9.90;99.90;;;;;;4985089;28;20058;-77
2024/01/22 12:08:31;;;;;;;697.28;635.40;;;9.90;99.90;;;;;;4992926;28;20051;-77
2024/01/22 12:11:06;;;;;;;550.33;507.17;;;9.90;99.90;;;;;;4998870;28;20046;-77
2024/01/22 12:13:32;;;;;;;491.30;454.63;;;9.90;99.90;;;;;;5034847;28;20173;-78